sensor_id;sensor_type;location;lat;lon;timestamp;P1;durP1;ratioP1;P2;durP2;ratioP2
56477;SDS011;42382;53.210;5.772;2023-07-16T00:01:33;19.20;;;3.75;;
56477;SDS011;42382;53.210;5.772;2023-07-16T00:03:58;17.77;;;3.78;;
56477;SDS011;42382;53.210;5.772;2023-07-16T00:06:24;20.08;;;4.72;;
56477;SDS011;42382;53.210;5.772;2023-07-16T00:08:49;13.68;;;4.57;;
56477;SDS011;42382;53.210;5.772;2023-07-16T00:11:15;14.15;;;3.70;;
56477;SDS011;42382;53.210;5.772;2023-07-16T00:13:41;13.38;;;4.00;;
56477;SDS011;42382;53.210;5.772;2023-07-16T00:16:11;16.88;;;4.82;;
56477;SDS011;42382;53.210;5.772;2023-07-16T00:18:37;18.50;;;3.92;;
56477;SDS011;42382;53.210;5.772;2023-07-16T00:21:02;15.55;;;4.18;;
56477;SDS011;42382;53.210;5.772;2023-07-16T00:23:28;15.25;;;4.18;;
56477;SDS011;42382;53.210;5.772;2023-07-16T00:25:53;21.23;;;4.57;;
56477;SDS011;42382;53.210;5.772;2023-07-16T00:28:19;16.67;;;4.00;;
56477;SDS011;42382;53.210;5.772;2023-07-16T00:30:45;19.42;;;4.35;;
56477;SDS011;42382;53.210;5.772;2023-07-16T00:33:10;17.45;;;4.30;;
56477;SDS011;42382;53.210;5.772;2023-07-16T00:35:36;10.30;;;4.15;;
56477;SDS011;42382;53.210;5.772;2023-07-16T00:38:02;9.98;;;3.17;;
56477;SDS011;42382;53.210;5.772;2023-07-16T00:40:27;18.60;;;3.97;;
56477;SDS011;42382;53.210;5.772;2023-07-16T00:42:53;16.98;;;3.58;;
56477;SDS011;42382;53.210;5.772;2023-07-16T00:45:18;20.65;;;4.40;;
56477;SDS011;42382;53.210;5.772;2023-07-16T00:47:44;16.95;;;4.03;;
56477;SDS011;42382;53.210;5.772;2023-07-16T00:50:11;17.90;;;4.90;;
56477;SDS011;42382;53.210;5.772;2023-07-16T00:52:37;18.75;;;4.20;;
56477;SDS011;42382;53.210;5.772;2023-07-16T00:55:03;17.63;;;4.20;;
56477;SDS011;42382;53.210;5.772;2023-07-16T00:57:30;17.63;;;4.05;;
56477;SDS011;42382;53.210;5.772;2023-07-16T00:59:56;14.80;;;3.70;;
56477;SDS011;42382;53.210;5.772;2023-07-16T01:02:22;14.57;;;4.45;;
56477;SDS011;42382;53.210;5.772;2023-07-16T01:04:48;9.85;;;3.72;;
56477;SDS011;42382;53.210;5.772;2023-07-16T01:07:14;17.20;;;4.47;;
56477;SDS011;42382;53.210;5.772;2023-07-16T01:09:43;13.98;;;3.88;;
56477;SDS011;42382;53.210;5.772;2023-07-16T01:12:10;17.88;;;4.90;;
56477;SDS011;42382;53.210;5.772;2023-07-16T01:14:37;17.17;;;4.97;;
56477;SDS011;42382;53.210;5.772;2023-07-16T01:17:04;14.95;;;3.95;;
56477;SDS011;42382;53.210;5.772;2023-07-16T01:19:31;15.07;;;4.85;;
56477;SDS011;42382;53.210;5.772;2023-07-16T01:22:16;12.90;;;3.88;;
56477;SDS011;42382;53.210;5.772;2023-07-16T01:25:09;16.73;;;4.47;;
56477;SDS011;42382;53.210;5.772;2023-07-16T01:30:37;13.13;;;4.18;;
56477;SDS011;42382;53.210;5.772;2023-07-16T01:33:06;19.40;;;4.65;;
56477;SDS011;42382;53.210;5.772;2023-07-16T01:35:35;18.40;;;4.32;;
56477;SDS011;42382;53.210;5.772;2023-07-16T01:38:00;13.75;;;4.05;;
56477;SDS011;42382;53.210;5.772;2023-07-16T01:40:26;13.48;;;3.90;;
56477;SDS011;42382;53.210;5.772;2023-07-16T01:42:52;15.82;;;4.45;;
56477;SDS011;42382;53.210;5.772;2023-07-16T01:45:17;14.57;;;5.00;;
56477;SDS011;42382;53.210;5.772;2023-07-16T01:50:20;12.52;;;4.55;;
56477;SDS011;42382;53.210;5.772;2023-07-16T01:52:46;12.90;;;4.22;;
56477;SDS011;42382;53.210;5.772;2023-07-16T01:55:11;15.60;;;4.32;;
56477;SDS011;42382;53.210;5.772;2023-07-16T01:57:37;12.02;;;3.40;;
56477;SDS011;42382;53.210;5.772;2023-07-16T02:00:03;12.88;;;4.05;;
56477;SDS011;42382;53.210;5.772;2023-07-16T02:02:29;11.20;;;2.75;;
56477;SDS011;42382;53.210;5.772;2023-07-16T02:04:55;13.60;;;3.13;;
56477;SDS011;42382;53.210;5.772;2023-07-16T02:07:20;16.38;;;3.65;;
56477;SDS011;42382;53.210;5.772;2023-07-16T02:09:46;9.63;;;3.50;;
56477;SDS011;42382;53.210;5.772;2023-07-16T02:12:11;13.98;;;3.75;;
56477;SDS011;42382;53.210;5.772;2023-07-16T02:14:37;19.52;;;4.95;;
56477;SDS011;42382;53.210;5.772;2023-07-16T02:17:02;12.93;;;3.83;;
56477;SDS011;42382;53.210;5.772;2023-07-16T02:19:28;10.95;;;4.18;;
56477;SDS011;42382;53.210;5.772;2023-07-16T02:21:54;10.77;;;3.78;;
56477;SDS011;42382;53.210;5.772;2023-07-16T02:24:19;18.02;;;3.60;;
56477;SDS011;42382;53.210;5.772;2023-07-16T02:26:46;11.70;;;3.53;;
56477;SDS011;42382;53.210;5.772;2023-07-16T02:29:12;15.13;;;3.83;;
56477;SDS011;42382;53.210;5.772;2023-07-16T02:31:37;13.18;;;3.85;;
56477;SDS011;42382;53.210;5.772;2023-07-16T02:34:03;9.95;;;3.38;;
56477;SDS011;42382;53.210;5.772;2023-07-16T02:36:29;14.95;;;4.05;;
56477;SDS011;42382;53.210;5.772;2023-07-16T02:38:54;12.43;;;4.43;;
56477;SDS011;42382;53.210;5.772;2023-07-16T02:41:20;18.25;;;4.70;;
56477;SDS011;42382;53.210;5.772;2023-07-16T02:43:45;17.52;;;4.63;;
56477;SDS011;42382;53.210;5.772;2023-07-16T02:46:11;14.15;;;4.25;;
56477;SDS011;42382;53.210;5.772;2023-07-16T02:48:37;9.38;;;4.07;;
56477;SDS011;42382;53.210;5.772;2023-07-16T02:51:03;13.93;;;4.30;;
56477;SDS011;42382;53.210;5.772;2023-07-16T02:53:28;14.82;;;4.57;;
56477;SDS011;42382;53.210;5.772;2023-07-16T02:55:54;11.38;;;4.13;;
56477;SDS011;42382;53.210;5.772;2023-07-16T02:58:19;18.48;;;3.90;;
56477;SDS011;42382;53.210;5.772;2023-07-16T03:00:45;10.60;;;4.05;;
56477;SDS011;42382;53.210;5.772;2023-07-16T03:03:11;11.55;;;4.57;;
56477;SDS011;42382;53.210;5.772;2023-07-16T03:05:37;10.15;;;4.25;;
56477;SDS011;42382;53.210;5.772;2023-07-16T03:08:02;15.70;;;4.55;;
56477;SDS011;42382;53.210;5.772;2023-07-16T03:10:28;14.25;;;4.47;;
56477;SDS011;42382;53.210;5.772;2023-07-16T03:12:54;9.65;;;4.63;;
56477;SDS011;42382;53.210;5.772;2023-07-16T03:15:19;13.25;;;4.90;;
56477;SDS011;42382;53.210;5.772;2023-07-16T03:17:45;16.42;;;5.47;;
56477;SDS011;42382;53.210;5.772;2023-07-16T03:20:11;16.15;;;4.63;;
56477;SDS011;42382;53.210;5.772;2023-07-16T03:22:38;15.15;;;5.63;;
56477;SDS011;42382;53.210;5.772;2023-07-16T03:25:03;15.93;;;5.43;;
56477;SDS011;42382;53.210;5.772;2023-07-16T03:27:30;13.27;;;4.90;;
56477;SDS011;42382;53.210;5.772;2023-07-16T03:29:56;17.27;;;5.63;;
56477;SDS011;42382;53.210;5.772;2023-07-16T03:32:22;13.07;;;4.85;;
56477;SDS011;42382;53.210;5.772;2023-07-16T03:34:47;14.95;;;5.70;;
56477;SDS011;42382;53.210;5.772;2023-07-16T03:37:16;15.95;;;5.38;;
56477;SDS011;42382;53.210;5.772;2023-07-16T03:39:41;21.30;;;5.78;;
56477;SDS011;42382;53.210;5.772;2023-07-16T03:42:07;15.23;;;5.55;;
56477;SDS011;42382;53.210;5.772;2023-07-16T03:44:32;17.75;;;6.05;;
56477;SDS011;42382;53.210;5.772;2023-07-16T03:46:58;22.55;;;6.50;;
56477;SDS011;42382;53.210;5.772;2023-07-16T03:49:24;15.32;;;5.75;;
56477;SDS011;42382;53.210;5.772;2023-07-16T03:51:50;15.00;;;5.72;;
56477;SDS011;42382;53.210;5.772;2023-07-16T03:54:15;11.45;;;5.45;;
56477;SDS011;42382;53.210;5.772;2023-07-16T03:56:41;12.35;;;5.53;;
56477;SDS011;42382;53.210;5.772;2023-07-16T03:59:06;12.25;;;4.82;;
56477;SDS011;42382;53.210;5.772;2023-07-16T04:01:32;15.48;;;4.90;;
56477;SDS011;42382;53.210;5.772;2023-07-16T04:03:57;17.60;;;5.07;;
56477;SDS011;42382;53.210;5.772;2023-07-16T04:06:23;14.02;;;5.20;;
56477;SDS011;42382;53.210;5.772;2023-07-16T04:08:49;14.77;;;5.65;;
56477;SDS011;42382;53.210;5.772;2023-07-16T04:11:14;14.50;;;5.43;;
56477;SDS011;42382;53.210;5.772;2023-07-16T04:13:42;15.40;;;4.95;;
56477;SDS011;42382;53.210;5.772;2023-07-16T04:16:08;14.15;;;4.97;;
56477;SDS011;42382;53.210;5.772;2023-07-16T04:18:34;21.48;;;5.63;;
56477;SDS011;42382;53.210;5.772;2023-07-16T04:20:59;15.23;;;5.20;;
56477;SDS011;42382;53.210;5.772;2023-07-16T04:23:25;13.68;;;5.40;;
56477;SDS011;42382;53.210;5.772;2023-07-16T04:25:51;16.83;;;5.47;;
56477;SDS011;42382;53.210;5.772;2023-07-16T04:28:18;13.82;;;6.25;;
56477;SDS011;42382;53.210;5.772;2023-07-16T04:30:44;20.73;;;6.13;;
56477;SDS011;42382;53.210;5.772;2023-07-16T04:33:09;14.32;;;5.15;;
56477;SDS011;42382;53.210;5.772;2023-07-16T04:35:35;12.15;;;5.05;;
56477;SDS011;42382;53.210;5.772;2023-07-16T04:38:01;13.27;;;5.40;;
56477;SDS011;42382;53.210;5.772;2023-07-16T04:40:27;15.27;;;5.22;;
56477;SDS011;42382;53.210;5.772;2023-07-16T04:42:56;15.80;;;5.72;;
56477;SDS011;42382;53.210;5.772;2023-07-16T04:45:22;16.77;;;5.15;;
56477;SDS011;42382;53.210;5.772;2023-07-16T04:47:47;12.77;;;4.82;;
56477;SDS011;42382;53.210;5.772;2023-07-16T04:50:16;15.00;;;5.07;;
56477;SDS011;42382;53.210;5.772;2023-07-16T04:52:41;13.75;;;4.60;;
56477;SDS011;42382;53.210;5.772;2023-07-16T04:55:07;14.82;;;4.50;;
56477;SDS011;42382;53.210;5.772;2023-07-16T04:57:33;15.50;;;4.50;;
56477;SDS011;42382;53.210;5.772;2023-07-16T04:59:59;17.48;;;5.45;;
56477;SDS011;42382;53.210;5.772;2023-07-16T05:02:24;15.93;;;4.80;;
56477;SDS011;42382;53.210;5.772;2023-07-16T05:04:50;15.88;;;5.43;;
56477;SDS011;42382;53.210;5.772;2023-07-16T05:07:16;14.27;;;4.97;;
56477;SDS011;42382;53.210;5.772;2023-07-16T05:09:42;15.25;;;5.97;;
56477;SDS011;42382;53.210;5.772;2023-07-16T05:12:08;13.30;;;5.07;;
56477;SDS011;42382;53.210;5.772;2023-07-16T05:14:42;17.02;;;5.70;;
56477;SDS011;42382;53.210;5.772;2023-07-16T05:17:13;15.82;;;5.35;;
56477;SDS011;42382;53.210;5.772;2023-07-16T05:19:39;12.02;;;4.53;;
56477;SDS011;42382;53.210;5.772;2023-07-16T05:22:05;17.45;;;5.35;;
56477;SDS011;42382;53.210;5.772;2023-07-16T05:24:31;11.27;;;4.63;;
56477;SDS011;42382;53.210;5.772;2023-07-16T05:26:57;15.77;;;5.88;;
56477;SDS011;42382;53.210;5.772;2023-07-16T05:29:22;21.20;;;6.45;;
56477;SDS011;42382;53.210;5.772;2023-07-16T05:31:48;20.42;;;5.97;;
56477;SDS011;42382;53.210;5.772;2023-07-16T05:34:14;15.15;;;5.50;;
56477;SDS011;42382;53.210;5.772;2023-07-16T05:36:41;17.70;;;6.18;;
56477;SDS011;42382;53.210;5.772;2023-07-16T05:39:07;17.15;;;5.40;;
56477;SDS011;42382;53.210;5.772;2023-07-16T05:41:33;12.90;;;5.28;;
56477;SDS011;42382;53.210;5.772;2023-07-16T05:43:59;24.70;;;6.47;;
56477;SDS011;42382;53.210;5.772;2023-07-16T05:46:25;17.45;;;5.20;;
56477;SDS011;42382;53.210;5.772;2023-07-16T05:48:51;18.50;;;5.65;;
56477;SDS011;42382;53.210;5.772;2023-07-16T05:51:16;15.38;;;5.35;;
56477;SDS011;42382;53.210;5.772;2023-07-16T05:53:42;17.65;;;5.50;;
56477;SDS011;42382;53.210;5.772;2023-07-16T05:56:08;13.65;;;4.97;;
56477;SDS011;42382;53.210;5.772;2023-07-16T05:58:33;17.67;;;5.57;;
56477;SDS011;42382;53.210;5.772;2023-07-16T06:00:59;16.83;;;5.90;;
56477;SDS011;42382;53.210;5.772;2023-07-16T06:03:24;8.57;;;3.42;;
56477;SDS011;42382;53.210;5.772;2023-07-16T06:05:50;14.13;;;4.55;;
56477;SDS011;42382;53.210;5.772;2023-07-16T06:08:16;12.57;;;3.85;;
56477;SDS011;42382;53.210;5.772;2023-07-16T06:10:41;12.52;;;4.30;;
56477;SDS011;42382;53.210;5.772;2023-07-16T06:13:07;12.57;;;4.05;;
56477;SDS011;42382;53.210;5.772;2023-07-16T06:15:32;11.55;;;4.68;;
56477;SDS011;42382;53.210;5.772;2023-07-16T06:17:58;14.35;;;4.95;;
56477;SDS011;42382;53.210;5.772;2023-07-16T06:20:24;15.40;;;4.57;;
56477;SDS011;42382;53.210;5.772;2023-07-16T06:22:49;17.25;;;4.85;;
56477;SDS011;42382;53.210;5.772;2023-07-16T06:25:15;14.95;;;4.72;;
56477;SDS011;42382;53.210;5.772;2023-07-16T06:27:40;12.93;;;5.05;;
56477;SDS011;42382;53.210;5.772;2023-07-16T06:30:06;14.00;;;4.75;;
56477;SDS011;42382;53.210;5.772;2023-07-16T06:32:32;16.08;;;4.63;;
56477;SDS011;42382;53.210;5.772;2023-07-16T06:34:58;13.07;;;4.97;;
56477;SDS011;42382;53.210;5.772;2023-07-16T06:37:23;12.35;;;5.30;;
56477;SDS011;42382;53.210;5.772;2023-07-16T06:39:50;19.92;;;5.10;;
56477;SDS011;42382;53.210;5.772;2023-07-16T06:42:16;12.05;;;4.68;;
56477;SDS011;42382;53.210;5.772;2023-07-16T06:44:41;12.15;;;5.53;;
56477;SDS011;42382;53.210;5.772;2023-07-16T06:47:07;13.25;;;5.57;;
56477;SDS011;42382;53.210;5.772;2023-07-16T06:49:33;13.50;;;4.47;;
56477;SDS011;42382;53.210;5.772;2023-07-16T06:52:02;16.10;;;5.15;;
56477;SDS011;42382;53.210;5.772;2023-07-16T06:54:27;15.52;;;5.00;;
56477;SDS011;42382;53.210;5.772;2023-07-16T06:56:53;15.70;;;5.38;;
56477;SDS011;42382;53.210;5.772;2023-07-16T06:59:19;14.55;;;4.63;;
56477;SDS011;42382;53.210;5.772;2023-07-16T07:01:44;18.27;;;5.50;;
56477;SDS011;42382;53.210;5.772;2023-07-16T07:04:10;9.55;;;4.32;;
56477;SDS011;42382;53.210;5.772;2023-07-16T07:06:36;14.13;;;4.32;;
56477;SDS011;42382;53.210;5.772;2023-07-16T07:09:01;15.48;;;4.68;;
56477;SDS011;42382;53.210;5.772;2023-07-16T07:11:27;15.38;;;4.45;;
56477;SDS011;42382;53.210;5.772;2023-07-16T07:13:53;11.57;;;3.47;;
56477;SDS011;42382;53.210;5.772;2023-07-16T07:16:19;12.90;;;4.10;;
56477;SDS011;42382;53.210;5.772;2023-07-16T07:18:44;15.10;;;4.15;;
56477;SDS011;42382;53.210;5.772;2023-07-16T07:21:10;15.85;;;4.63;;
56477;SDS011;42382;53.210;5.772;2023-07-16T07:23:35;17.88;;;4.20;;
56477;SDS011;42382;53.210;5.772;2023-07-16T07:26:01;15.98;;;4.32;;
56477;SDS011;42382;53.210;5.772;2023-07-16T07:28:27;16.90;;;4.10;;
56477;SDS011;42382;53.210;5.772;2023-07-16T07:30:56;20.25;;;3.88;;
56477;SDS011;42382;53.210;5.772;2023-07-16T07:33:22;14.13;;;4.05;;
56477;SDS011;42382;53.210;5.772;2023-07-16T07:35:47;14.23;;;4.70;;
56477;SDS011;42382;53.210;5.772;2023-07-16T07:38:13;14.98;;;4.72;;
56477;SDS011;42382;53.210;5.772;2023-07-16T07:40:39;10.65;;;4.03;;
56477;SDS011;42382;53.210;5.772;2023-07-16T07:43:08;9.07;;;4.07;;
56477;SDS011;42382;53.210;5.772;2023-07-16T07:45:34;14.38;;;4.15;;
56477;SDS011;42382;53.210;5.772;2023-07-16T07:47:59;11.68;;;3.65;;
56477;SDS011;42382;53.210;5.772;2023-07-16T07:50:25;10.57;;;3.90;;
56477;SDS011;42382;53.210;5.772;2023-07-16T07:52:51;11.15;;;4.72;;
56477;SDS011;42382;53.210;5.772;2023-07-16T07:55:16;11.43;;;3.75;;
56477;SDS011;42382;53.210;5.772;2023-07-16T07:57:42;14.40;;;3.85;;
56477;SDS011;42382;53.210;5.772;2023-07-16T08:00:07;12.63;;;4.05;;
56477;SDS011;42382;53.210;5.772;2023-07-16T08:02:36;13.75;;;4.10;;
56477;SDS011;42382;53.210;5.772;2023-07-16T08:05:02;11.60;;;3.45;;
56477;SDS011;42382;53.210;5.772;2023-07-16T08:07:28;9.75;;;3.75;;
56477;SDS011;42382;53.210;5.772;2023-07-16T08:09:54;12.40;;;3.80;;
56477;SDS011;42382;53.210;5.772;2023-07-16T08:12:20;11.20;;;3.70;;
56477;SDS011;42382;53.210;5.772;2023-07-16T08:14:45;10.27;;;3.60;;
56477;SDS011;42382;53.210;5.772;2023-07-16T08:17:11;12.77;;;4.13;;
56477;SDS011;42382;53.210;5.772;2023-07-16T08:19:37;14.13;;;4.05;;
56477;SDS011;42382;53.210;5.772;2023-07-16T08:22:03;11.32;;;3.67;;
56477;SDS011;42382;53.210;5.772;2023-07-16T08:24:31;15.32;;;4.03;;
56477;SDS011;42382;53.210;5.772;2023-07-16T08:26:57;9.38;;;3.60;;
56477;SDS011;42382;53.210;5.772;2023-07-16T08:29:23;11.40;;;4.32;;
56477;SDS011;42382;53.210;5.772;2023-07-16T08:31:48;12.70;;;3.50;;
56477;SDS011;42382;53.210;5.772;2023-07-16T08:34:14;11.93;;;3.83;;
56477;SDS011;42382;53.210;5.772;2023-07-16T08:36:39;12.38;;;3.83;;
56477;SDS011;42382;53.210;5.772;2023-07-16T08:39:05;13.68;;;3.67;;
56477;SDS011;42382;53.210;5.772;2023-07-16T08:41:32;10.88;;;3.50;;
56477;SDS011;42382;53.210;5.772;2023-07-16T08:43:58;11.07;;;3.00;;
56477;SDS011;42382;53.210;5.772;2023-07-16T08:46:24;12.60;;;2.78;;
56477;SDS011;42382;53.210;5.772;2023-07-16T08:48:50;13.07;;;3.92;;
56477;SDS011;42382;53.210;5.772;2023-07-16T08:51:16;13.50;;;3.13;;
56477;SDS011;42382;53.210;5.772;2023-07-16T08:53:43;13.43;;;3.67;;
56477;SDS011;42382;53.210;5.772;2023-07-16T08:56:09;14.65;;;3.63;;
56477;SDS011;42382;53.210;5.772;2023-07-16T08:58:35;10.75;;;2.88;;
56477;SDS011;42382;53.210;5.772;2023-07-16T09:01:04;9.18;;;2.20;;
56477;SDS011;42382;53.210;5.772;2023-07-16T09:03:31;15.40;;;3.15;;
56477;SDS011;42382;53.210;5.772;2023-07-16T09:05:56;10.80;;;3.10;;
56477;SDS011;42382;53.210;5.772;2023-07-16T09:08:22;10.82;;;3.70;;
56477;SDS011;42382;53.210;5.772;2023-07-16T09:10:56;12.32;;;3.72;;
56477;SDS011;42382;53.210;5.772;2023-07-16T09:13:23;11.38;;;2.97;;
56477;SDS011;42382;53.210;5.772;2023-07-16T09:15:56;16.65;;;3.75;;
56477;SDS011;42382;53.210;5.772;2023-07-16T09:18:24;14.80;;;3.58;;
56477;SDS011;42382;53.210;5.772;2023-07-16T09:20:54;14.38;;;3.83;;
56477;SDS011;42382;53.210;5.772;2023-07-16T09:23:25;11.50;;;3.10;;
56477;SDS011;42382;53.210;5.772;2023-07-16T09:25:52;11.50;;;3.60;;
56477;SDS011;42382;53.210;5.772;2023-07-16T09:28:19;12.73;;;3.60;;
56477;SDS011;42382;53.210;5.772;2023-07-16T09:30:45;15.35;;;4.13;;
56477;SDS011;42382;53.210;5.772;2023-07-16T09:33:15;14.52;;;4.38;;
56477;SDS011;42382;53.210;5.772;2023-07-16T09:35:49;13.48;;;4.03;;
56477;SDS011;42382;53.210;5.772;2023-07-16T09:38:16;11.88;;;4.00;;
56477;SDS011;42382;53.210;5.772;2023-07-16T09:40:42;13.13;;;4.03;;
56477;SDS011;42382;53.210;5.772;2023-07-16T09:43:09;12.70;;;3.80;;
56477;SDS011;42382;53.210;5.772;2023-07-16T09:45:36;14.68;;;4.05;;
56477;SDS011;42382;53.210;5.772;2023-07-16T09:48:02;11.98;;;3.42;;
56477;SDS011;42382;53.210;5.772;2023-07-16T09:50:29;16.80;;;3.47;;
56477;SDS011;42382;53.210;5.772;2023-07-16T09:52:57;14.73;;;3.45;;
56477;SDS011;42382;53.210;5.772;2023-07-16T09:55:23;14.60;;;4.15;;
56477;SDS011;42382;53.210;5.772;2023-07-16T09:57:50;11.85;;;4.00;;
56477;SDS011;42382;53.210;5.772;2023-07-16T10:00:18;15.65;;;4.15;;
56477;SDS011;42382;53.210;5.772;2023-07-16T10:02:46;12.05;;;4.43;;
56477;SDS011;42382;53.210;5.772;2023-07-16T10:07:41;15.63;;;4.93;;
56477;SDS011;42382;53.210;5.772;2023-07-16T10:10:08;16.38;;;4.40;;
56477;SDS011;42382;53.210;5.772;2023-07-16T10:12:35;12.35;;;3.33;;
56477;SDS011;42382;53.210;5.772;2023-07-16T10:15:03;13.25;;;3.40;;
56477;SDS011;42382;53.210;5.772;2023-07-16T10:17:31;15.52;;;3.35;;
56477;SDS011;42382;53.210;5.772;2023-07-16T10:19:58;20.00;;;4.32;;
56477;SDS011;42382;53.210;5.772;2023-07-16T10:22:33;12.93;;;3.47;;
56477;SDS011;42382;53.210;5.772;2023-07-16T10:27:33;15.23;;;3.65;;
56477;SDS011;42382;53.210;5.772;2023-07-16T10:30:00;16.42;;;3.28;;
56477;SDS011;42382;53.210;5.772;2023-07-16T10:32:28;17.58;;;3.78;;
56477;SDS011;42382;53.210;5.772;2023-07-16T10:34:54;15.32;;;3.72;;
56477;SDS011;42382;53.210;5.772;2023-07-16T10:37:20;12.60;;;3.08;;
56477;SDS011;42382;53.210;5.772;2023-07-16T10:39:47;11.30;;;2.85;;
56477;SDS011;42382;53.210;5.772;2023-07-16T10:42:16;12.48;;;3.28;;
56477;SDS011;42382;53.210;5.772;2023-07-16T10:44:43;13.75;;;3.13;;
56477;SDS011;42382;53.210;5.772;2023-07-16T10:47:09;14.00;;;4.00;;
56477;SDS011;42382;53.210;5.772;2023-07-16T10:49:43;16.02;;;2.95;;
56477;SDS011;42382;53.210;5.772;2023-07-16T10:52:09;9.45;;;2.67;;
56477;SDS011;42382;53.210;5.772;2023-07-16T10:54:35;16.40;;;3.40;;
56477;SDS011;42382;53.210;5.772;2023-07-16T10:57:00;15.55;;;3.28;;
56477;SDS011;42382;53.210;5.772;2023-07-16T10:59:26;9.25;;;3.00;;
56477;SDS011;42382;53.210;5.772;2023-07-16T11:01:52;11.45;;;3.83;;
56477;SDS011;42382;53.210;5.772;2023-07-16T11:04:18;10.43;;;3.10;;
56477;SDS011;42382;53.210;5.772;2023-07-16T11:06:43;10.85;;;3.10;;
56477;SDS011;42382;53.210;5.772;2023-07-16T11:09:09;11.23;;;3.25;;
56477;SDS011;42382;53.210;5.772;2023-07-16T11:11:35;13.75;;;3.33;;
56477;SDS011;42382;53.210;5.772;2023-07-16T11:14:04;13.88;;;3.03;;
56477;SDS011;42382;53.210;5.772;2023-07-16T11:16:37;9.90;;;2.13;;
56477;SDS011;42382;53.210;5.772;2023-07-16T11:19:06;10.55;;;2.33;;
56477;SDS011;42382;53.210;5.772;2023-07-16T11:21:35;10.45;;;2.20;;
56477;SDS011;42382;53.210;5.772;2023-07-16T11:24:08;10.00;;;2.30;;
56477;SDS011;42382;53.210;5.772;2023-07-16T11:26:34;12.35;;;2.08;;
56477;SDS011;42382;53.210;5.772;2023-07-16T11:29:00;17.00;;;2.67;;
56477;SDS011;42382;53.210;5.772;2023-07-16T11:31:26;11.85;;;1.77;;
56477;SDS011;42382;53.210;5.772;2023-07-16T11:33:52;16.65;;;1.35;;
56477;SDS011;42382;53.210;5.772;2023-07-16T11:36:17;13.07;;;1.92;;
56477;SDS011;42382;53.210;5.772;2023-07-16T11:38:43;9.32;;;1.15;;
56477;SDS011;42382;53.210;5.772;2023-07-16T11:41:09;11.15;;;1.70;;
56477;SDS011;42382;53.210;5.772;2023-07-16T11:43:35;15.73;;;1.85;;
56477;SDS011;42382;53.210;5.772;2023-07-16T11:46:02;13.00;;;2.00;;
56477;SDS011;42382;53.210;5.772;2023-07-16T11:48:28;10.52;;;1.65;;
56477;SDS011;42382;53.210;5.772;2023-07-16T11:50:54;9.93;;;1.40;;
56477;SDS011;42382;53.210;5.772;2023-07-16T11:53:19;11.65;;;1.52;;
56477;SDS011;42382;53.210;5.772;2023-07-16T11:55:45;14.13;;;2.90;;
56477;SDS011;42382;53.210;5.772;2023-07-16T11:58:11;13.43;;;1.45;;
56477;SDS011;42382;53.210;5.772;2023-07-16T12:00:36;12.73;;;1.50;;
56477;SDS011;42382;53.210;5.772;2023-07-16T12:03:02;14.98;;;2.53;;
56477;SDS011;42382;53.210;5.772;2023-07-16T12:05:28;10.43;;;1.45;;
56477;SDS011;42382;53.210;5.772;2023-07-16T12:07:53;12.48;;;1.75;;
56477;SDS011;42382;53.210;5.772;2023-07-16T12:10:19;15.05;;;2.75;;
56477;SDS011;42382;53.210;5.772;2023-07-16T12:12:45;18.27;;;2.38;;
56477;SDS011;42382;53.210;5.772;2023-07-16T12:15:11;10.60;;;2.13;;
56477;SDS011;42382;53.210;5.772;2023-07-16T12:17:37;16.60;;;2.90;;
56477;SDS011;42382;53.210;5.772;2023-07-16T12:20:04;14.93;;;2.78;;
56477;SDS011;42382;53.210;5.772;2023-07-16T12:22:30;17.40;;;3.60;;
56477;SDS011;42382;53.210;5.772;2023-07-16T12:24:56;12.93;;;2.05;;
56477;SDS011;42382;53.210;5.772;2023-07-16T12:27:25;17.92;;;2.30;;
56477;SDS011;42382;53.210;5.772;2023-07-16T12:29:50;10.40;;;1.98;;
56477;SDS011;42382;53.210;5.772;2023-07-16T12:32:17;17.67;;;2.65;;
56477;SDS011;42382;53.210;5.772;2023-07-16T12:34:42;14.70;;;2.50;;
56477;SDS011;42382;53.210;5.772;2023-07-16T12:37:09;16.08;;;3.63;;
56477;SDS011;42382;53.210;5.772;2023-07-16T12:39:35;16.48;;;3.30;;
56477;SDS011;42382;53.210;5.772;2023-07-16T12:42:00;18.60;;;2.58;;
56477;SDS011;42382;53.210;5.772;2023-07-16T12:44:26;16.63;;;3.10;;
56477;SDS011;42382;53.210;5.772;2023-07-16T12:46:51;16.30;;;2.63;;
56477;SDS011;42382;53.210;5.772;2023-07-16T12:49:17;18.27;;;3.50;;
56477;SDS011;42382;53.210;5.772;2023-07-16T12:51:44;17.55;;;2.67;;
56477;SDS011;42382;53.210;5.772;2023-07-16T12:54:09;15.63;;;2.22;;
56477;SDS011;42382;53.210;5.772;2023-07-16T12:56:35;17.55;;;3.50;;
56477;SDS011;42382;53.210;5.772;2023-07-16T12:59:01;14.60;;;2.55;;
56477;SDS011;42382;53.210;5.772;2023-07-16T13:01:26;18.17;;;2.65;;
56477;SDS011;42382;53.210;5.772;2023-07-16T13:03:52;15.38;;;2.60;;
56477;SDS011;42382;53.210;5.772;2023-07-16T13:06:17;11.85;;;2.50;;
56477;SDS011;42382;53.210;5.772;2023-07-16T13:08:43;18.27;;;2.67;;
56477;SDS011;42382;53.210;5.772;2023-07-16T13:11:09;20.25;;;3.13;;
56477;SDS011;42382;53.210;5.772;2023-07-16T13:13:34;16.15;;;2.80;;
56477;SDS011;42382;53.210;5.772;2023-07-16T13:16:00;17.33;;;2.67;;
56477;SDS011;42382;53.210;5.772;2023-07-16T13:18:26;13.88;;;2.50;;
56477;SDS011;42382;53.210;5.772;2023-07-16T13:20:51;9.00;;;1.52;;
56477;SDS011;42382;53.210;5.772;2023-07-16T13:23:17;15.02;;;2.28;;
56477;SDS011;42382;53.210;5.772;2023-07-16T13:25:42;11.23;;;1.77;;
56477;SDS011;42382;53.210;5.772;2023-07-16T13:28:08;11.85;;;1.88;;
56477;SDS011;42382;53.210;5.772;2023-07-16T13:30:34;17.48;;;3.50;;
56477;SDS011;42382;53.210;5.772;2023-07-16T13:33:00;12.43;;;2.30;;
56477;SDS011;42382;53.210;5.772;2023-07-16T13:35:26;13.07;;;2.17;;
56477;SDS011;42382;53.210;5.772;2023-07-16T13:37:52;16.05;;;3.28;;
56477;SDS011;42382;53.210;5.772;2023-07-16T13:40:17;13.45;;;2.03;;
56477;SDS011;42382;53.210;5.772;2023-07-16T13:42:46;15.50;;;2.30;;
56477;SDS011;42382;53.210;5.772;2023-07-16T13:45:12;11.95;;;2.42;;
56477;SDS011;42382;53.210;5.772;2023-07-16T13:47:38;16.90;;;2.40;;
56477;SDS011;42382;53.210;5.772;2023-07-16T13:50:04;17.17;;;2.35;;
56477;SDS011;42382;53.210;5.772;2023-07-16T13:52:30;20.33;;;3.13;;
56477;SDS011;42382;53.210;5.772;2023-07-16T13:54:55;11.23;;;2.13;;
56477;SDS011;42382;53.210;5.772;2023-07-16T13:57:21;9.68;;;1.85;;
56477;SDS011;42382;53.210;5.772;2023-07-16T13:59:47;15.10;;;2.25;;
56477;SDS011;42382;53.210;5.772;2023-07-16T14:02:12;15.52;;;2.05;;
56477;SDS011;42382;53.210;5.772;2023-07-16T14:04:38;14.30;;;2.40;;
56477;SDS011;42382;53.210;5.772;2023-07-16T14:07:04;14.63;;;2.80;;
56477;SDS011;42382;53.210;5.772;2023-07-16T14:09:30;9.02;;;1.55;;
56477;SDS011;42382;53.210;5.772;2023-07-16T14:11:55;11.07;;;1.33;;
56477;SDS011;42382;53.210;5.772;2023-07-16T14:14:21;10.13;;;1.75;;
56477;SDS011;42382;53.210;5.772;2023-07-16T14:16:47;9.07;;;1.27;;
56477;SDS011;42382;53.210;5.772;2023-07-16T14:19:13;9.43;;;1.83;;
56477;SDS011;42382;53.210;5.772;2023-07-16T14:21:39;7.50;;;1.35;;
56477;SDS011;42382;53.210;5.772;2023-07-16T14:24:05;16.70;;;4.57;;
56477;SDS011;42382;53.210;5.772;2023-07-16T14:26:30;14.07;;;1.98;;
56477;SDS011;42382;53.210;5.772;2023-07-16T14:28:56;12.82;;;2.03;;
56477;SDS011;42382;53.210;5.772;2023-07-16T14:31:22;11.27;;;2.63;;
56477;SDS011;42382;53.210;5.772;2023-07-16T14:33:47;10.57;;;1.85;;
56477;SDS011;42382;53.210;5.772;2023-07-16T14:36:13;7.35;;;1.58;;
56477;SDS011;42382;53.210;5.772;2023-07-16T14:38:39;6.18;;;1.30;;
56477;SDS011;42382;53.210;5.772;2023-07-16T14:41:05;9.35;;;1.55;;